sensor_id;sensor_type;location;lat;lon;timestamp;temperature;humidity
43183;DHT22;28802;38.578;-0.066;2023-02-17T00:01:21;10.60;99.90
43183;DHT22;28802;38.578;-0.066;2023-02-17T00:03:49;10.40;99.90
43183;DHT22;28802;38.578;-0.066;2023-02-17T00:06:17;10.30;99.90
43183;DHT22;28802;38.578;-0.066;2023-02-17T00:08:44;10.50;99.90
43183;DHT22;28802;38.578;-0.066;2023-02-17T00:11:10;10.40;99.90
43183;DHT22;28802;38.578;-0.066;2023-02-17T00:13:36;10.40;99.90
43183;DHT22;28802;38.578;-0.066;2023-02-17T00:16:09;10.40;99.90
43183;DHT22;28802;38.578;-0.066;2023-02-17T00:18:36;10.30;99.90
43183;DHT22;28802;38.578;-0.066;2023-02-17T00:21:13;10.30;99.90
43183;DHT22;28802;38.578;-0.066;2023-02-17T00:23:39;10.00;99.90
43183;DHT22;28802;38.578;-0.066;2023-02-17T00:26:06;9.90;99.90
43183;DHT22;28802;38.578;-0.066;2023-02-17T00:28:32;10.00;99.90
43183;DHT22;28802;38.578;-0.066;2023-02-17T00:30:59;10.00;99.90
43183;DHT22;28802;38.578;-0.066;2023-02-17T00:33:29;10.10;99.90
43183;DHT22;28802;38.578;-0.066;2023-02-17T00:35:55;10.20;99.90
43183;DHT22;28802;38.578;-0.066;2023-02-17T00:38:21;10.00;99.90
43183;DHT22;28802;38.578;-0.066;2023-02-17T00:40:47;9.90;99.90
43183;DHT22;28802;38.578;-0.066;2023-02-17T00:43:13;10.10;99.90
43183;DHT22;28802;38.578;-0.066;2023-02-17T00:45:38;10.30;99.90
43183;DHT22;28802;38.578;-0.066;2023-02-17T00:48:04;10.20;99.90
43183;DHT22;28802;38.578;-0.066;2023-02-17T00:50:30;10.30;99.90
43183;DHT22;28802;38.578;-0.066;2023-02-17T00:52:56;10.00;99.90
43183;DHT22;28802;38.578;-0.066;2023-02-17T00:55:22;9.90;99.90
43183;DHT22;28802;38.578;-0.066;2023-02-17T00:57:48;9.90;99.90
43183;DHT22;28802;38.578;-0.066;2023-02-17T01:00:14;10.20;99.90
43183;DHT22;28802;38.578;-0.066;2023-02-17T01:02:40;10.30;99.90
43183;DHT22;28802;38.578;-0.066;2023-02-17T01:05:07;10.30;99.90
43183;DHT22;28802;38.578;-0.066;2023-02-17T01:07:33;10.30;99.90
43183;DHT22;28802;38.578;-0.066;2023-02-17T01:09:59;10.40;99.90
43183;DHT22;28802;38.578;-0.066;2023-02-17T01:12:25;10.40;99.90
43183;DHT22;28802;38.578;-0.066;2023-02-17T01:14:50;10.40;99.90
43183;DHT22;28802;38.578;-0.066;2023-02-17T01:17:16;10.20;99.90
43183;DHT22;28802;38.578;-0.066;2023-02-17T01:19:42;10.10;99.90
43183;DHT22;28802;38.578;-0.066;2023-02-17T01:22:08;10.10;99.90
43183;DHT22;28802;38.578;-0.066;2023-02-17T01:24:34;10.10;99.90
43183;DHT22;28802;38.578;-0.066;2023-02-17T01:27:02;9.90;99.90
43183;DHT22;28802;38.578;-0.066;2023-02-17T01:29:27;9.80;99.90
43183;DHT22;28802;38.578;-0.066;2023-02-17T01:31:53;9.90;99.90
43183;DHT22;28802;38.578;-0.066;2023-02-17T01:34:20;10.10;99.90
43183;DHT22;28802;38.578;-0.066;2023-02-17T01:36:46;10.10;99.90
43183;DHT22;28802;38.578;-0.066;2023-02-17T01:39:15;10.00;99.90
43183;DHT22;28802;38.578;-0.066;2023-02-17T01:41:45;10.00;99.90
43183;DHT22;28802;38.578;-0.066;2023-02-17T01:44:17;9.90;99.90
43183;DHT22;28802;38.578;-0.066;2023-02-17T01:46:46;10.00;99.90
43183;DHT22;28802;38.578;-0.066;2023-02-17T01:52:16;9.80;99.90
43183;DHT22;28802;38.578;-0.066;2023-02-17T01:55:07;9.60;99.90
43183;DHT22;28802;38.578;-0.066;2023-02-17T01:57:37;9.40;99.90
43183;DHT22;28802;38.578;-0.066;2023-02-17T02:00:05;9.30;99.90
43183;DHT22;28802;38.578;-0.066;2023-02-17T02:02:40;9.40;99.90
43183;DHT22;28802;38.578;-0.066;2023-02-17T02:05:07;9.40;99.90
43183;DHT22;28802;38.578;-0.066;2023-02-17T02:07:36;9.30;99.90
43183;DHT22;28802;38.578;-0.066;2023-02-17T02:10:04;9.30;99.90
43183;DHT22;28802;38.578;-0.066;2023-02-17T02:12:35;9.50;99.90
43183;DHT22;28802;38.578;-0.066;2023-02-17T02:34:07;9.90;99.90
43183;DHT22;28802;38.578;-0.066;2023-02-17T02:36:45;9.90;99.90
43183;DHT22;28802;38.578;-0.066;2023-02-17T02:39:19;9.90;99.90
43183;DHT22;28802;38.578;-0.066;2023-02-17T02:41:52;9.80;99.90
43183;DHT22;28802;38.578;-0.066;2023-02-17T02:44:20;9.70;99.90
43183;DHT22;28802;38.578;-0.066;2023-02-17T02:46:57;9.80;99.90
43183;DHT22;28802;38.578;-0.066;2023-02-17T02:49:24;9.70;99.90
43183;DHT22;28802;38.578;-0.066;2023-02-17T03:02:51;9.90;99.90
43183;DHT22;28802;38.578;-0.066;2023-02-17T03:05:41;10.00;99.90
43183;DHT22;28802;38.578;-0.066;2023-02-17T03:08:52;9.90;99.90
43183;DHT22;28802;38.578;-0.066;2023-02-17T03:11:21;9.90;99.90
43183;DHT22;28802;38.578;-0.066;2023-02-17T03:14:15;10.00;99.90
43183;DHT22;28802;38.578;-0.066;2023-02-17T03:16:41;10.00;99.90
43183;DHT22;28802;38.578;-0.066;2023-02-17T03:19:09;10.10;99.90
43183;DHT22;28802;38.578;-0.066;2023-02-17T03:21:49;10.20;99.90
43183;DHT22;28802;38.578;-0.066;2023-02-17T03:24:16;10.20;99.90
43183;DHT22;28802;38.578;-0.066;2023-02-17T03:26:42;10.30;99.90
43183;DHT22;28802;38.578;-0.066;2023-02-17T03:29:08;10.60;99.90
43183;DHT22;28802;38.578;-0.066;2023-02-17T03:31:34;10.60;99.90
43183;DHT22;28802;38.578;-0.066;2023-02-17T03:34:01;10.60;99.90
43183;DHT22;28802;38.578;-0.066;2023-02-17T03:36:27;10.50;99.90
43183;DHT22;28802;38.578;-0.066;2023-02-17T03:38:55;10.60;99.90
43183;DHT22;28802;38.578;-0.066;2023-02-17T03:41:21;10.70;99.90
43183;DHT22;28802;38.578;-0.066;2023-02-17T03:43:47;10.60;99.90
43183;DHT22;28802;38.578;-0.066;2023-02-17T03:46:15;10.70;99.90
43183;DHT22;28802;38.578;-0.066;2023-02-17T03:48:41;10.70;99.90
43183;DHT22;28802;38.578;-0.066;2023-02-17T03:51:20;10.70;99.90
43183;DHT22;28802;38.578;-0.066;2023-02-17T03:53:47;10.60;99.90
43183;DHT22;28802;38.578;-0.066;2023-02-17T03:56:14;10.60;99.90
43183;DHT22;28802;38.578;-0.066;2023-02-17T03:58:40;10.70;99.90
43183;DHT22;28802;38.578;-0.066;2023-02-17T04:01:07;10.70;99.90
43183;DHT22;28802;38.578;-0.066;2023-02-17T04:03:34;10.70;99.90
43183;DHT22;28802;38.578;-0.066;2023-02-17T04:06:01;10.50;99.90
43183;DHT22;28802;38.578;-0.066;2023-02-17T04:08:27;10.60;99.90
43183;DHT22;28802;38.578;-0.066;2023-02-17T04:10:56;10.60;99.90
43183;DHT22;28802;38.578;-0.066;2023-02-17T04:13:23;10.70;99.90
43183;DHT22;28802;38.578;-0.066;2023-02-17T04:15:49;10.80;99.90
43183;DHT22;28802;38.578;-0.066;2023-02-17T04:18:16;10.50;99.90
43183;DHT22;28802;38.578;-0.066;2023-02-17T04:20:43;10.50;99.90
43183;DHT22;28802;38.578;-0.066;2023-02-17T04:23:09;10.70;99.90
43183;DHT22;28802;38.578;-0.066;2023-02-17T04:25:36;10.80;99.90
43183;DHT22;28802;38.578;-0.066;2023-02-17T04:28:03;10.80;99.90
43183;DHT22;28802;38.578;-0.066;2023-02-17T04:30:30;10.80;99.90
43183;DHT22;28802;38.578;-0.066;2023-02-17T04:32:56;10.90;99.90
43183;DHT22;28802;38.578;-0.066;2023-02-17T04:35:23;10.80;99.90
43183;DHT22;28802;38.578;-0.066;2023-02-17T04:37:49;10.70;99.90
43183;DHT22;28802;38.578;-0.066;2023-02-17T04:40:15;10.60;99.90
43183;DHT22;28802;38.578;-0.066;2023-02-17T04:42:41;10.50;99.90
43183;DHT22;28802;38.578;-0.066;2023-02-17T04:45:07;10.70;99.90
43183;DHT22;28802;38.578;-0.066;2023-02-17T04:47:33;10.70;99.90
43183;DHT22;28802;38.578;-0.066;2023-02-17T04:49:59;10.60;99.90
43183;DHT22;28802;38.578;-0.066;2023-02-17T04:52:25;10.70;99.90
43183;DHT22;28802;38.578;-0.066;2023-02-17T04:54:51;10.60;99.90
43183;DHT22;28802;38.578;-0.066;2023-02-17T04:57:17;10.60;99.90
43183;DHT22;28802;38.578;-0.066;2023-02-17T04:59:43;10.50;99.90
43183;DHT22;28802;38.578;-0.066;2023-02-17T05:02:09;10.40;99.90
43183;DHT22;28802;38.578;-0.066;2023-02-17T05:04:35;10.40;99.90
43183;DHT22;28802;38.578;-0.066;2023-02-17T05:07:01;10.40;99.90
43183;DHT22;28802;38.578;-0.066;2023-02-17T05:09:27;10.30;99.90
43183;DHT22;28802;38.578;-0.066;2023-02-17T05:11:53;10.30;99.90
43183;DHT22;28802;38.578;-0.066;2023-02-17T05:14:19;10.10;99.90
43183;DHT22;28802;38.578;-0.066;2023-02-17T05:16:45;10.20;99.90
43183;DHT22;28802;38.578;-0.066;2023-02-17T05:19:11;10.40;99.90
43183;DHT22;28802;38.578;-0.066;2023-02-17T05:21:37;10.50;99.90
43183;DHT22;28802;38.578;-0.066;2023-02-17T05:24:03;10.40;99.90
43183;DHT22;28802;38.578;-0.066;2023-02-17T05:26:29;10.30;99.90
43183;DHT22;28802;38.578;-0.066;2023-02-17T05:28:56;10.10;99.90
43183;DHT22;28802;38.578;-0.066;2023-02-17T05:31:22;10.10;99.90
43183;DHT22;28802;38.578;-0.066;2023-02-17T05:33:47;10.10;99.90
43183;DHT22;28802;38.578;-0.066;2023-02-17T05:36:13;10.40;99.90
43183;DHT22;28802;38.578;-0.066;2023-02-17T05:38:39;10.40;99.90
43183;DHT22;28802;38.578;-0.066;2023-02-17T05:41:05;10.30;99.90
43183;DHT22;28802;38.578;-0.066;2023-02-17T05:43:31;10.30;99.90
43183;DHT22;28802;38.578;-0.066;2023-02-17T05:46:04;10.40;99.90
43183;DHT22;28802;38.578;-0.066;2023-02-17T05:48:30;10.30;99.90
43183;DHT22;28802;38.578;-0.066;2023-02-17T05:50:56;10.30;99.90
43183;DHT22;28802;38.578;-0.066;2023-02-17T05:53:22;10.30;99.90
43183;DHT22;28802;38.578;-0.066;2023-02-17T05:55:47;10.10;99.90
43183;DHT22;28802;38.578;-0.066;2023-02-17T05:58:13;9.90;99.90
43183;DHT22;28802;38.578;-0.066;2023-02-17T06:00:39;10.10;99.90
43183;DHT22;28802;38.578;-0.066;2023-02-17T06:03:05;10.10;99.90
43183;DHT22;28802;38.578;-0.066;2023-02-17T06:05:31;10.10;99.90
43183;DHT22;28802;38.578;-0.066;2023-02-17T06:07:57;10.00;99.90
43183;DHT22;28802;38.578;-0.066;2023-02-17T06:10:23;10.00;99.90
43183;DHT22;28802;38.578;-0.066;2023-02-17T06:12:49;10.00;99.90
43183;DHT22;28802;38.578;-0.066;2023-02-17T06:15:15;10.00;99.90
43183;DHT22;28802;38.578;-0.066;2023-02-17T06:17:41;10.00;99.90
43183;DHT22;28802;38.578;-0.066;2023-02-17T06:20:08;10.10;99.90
43183;DHT22;28802;38.578;-0.066;2023-02-17T06:22:34;10.00;99.90
43183;DHT22;28802;38.578;-0.066;2023-02-17T06:25:00;10.10;99.90
43183;DHT22;28802;38.578;-0.066;2023-02-17T06:27:26;10.10;99.90
43183;DHT22;28802;38.578;-0.066;2023-02-17T06:29:52;10.00;99.90
43183;DHT22;28802;38.578;-0.066;2023-02-17T06:32:17;10.00;99.90
43183;DHT22;28802;38.578;-0.066;2023-02-17T06:34:43;9.90;99.90
43183;DHT22;28802;38.578;-0.066;2023-02-17T06:37:09;10.00;99.90
43183;DHT22;28802;38.578;-0.066;2023-02-17T06:39:35;10.00;99.90
43183;DHT22;28802;38.578;-0.066;2023-02-17T06:42:01;10.20;99.90
43183;DHT22;28802;38.578;-0.066;2023-02-17T06:44:27;10.10;99.90
43183;DHT22;28802;38.578;-0.066;2023-02-17T06:46:53;10.10;99.90
43183;DHT22;28802;38.578;-0.066;2023-02-17T06:49:19;10.30;99.90
43183;DHT22;28802;38.578;-0.066;2023-02-17T06:51:45;10.40;99.90
43183;DHT22;28802;38.578;-0.066;2023-02-17T06:54:11;10.40;99.90
43183;DHT22;28802;38.578;-0.066;2023-02-17T06:56:36;10.60;99.90
43183;DHT22;28802;38.578;-0.066;2023-02-17T06:59:03;10.50;99.90
43183;DHT22;28802;38.578;-0.066;2023-02-17T07:01:29;10.40;99.90
43183;DHT22;28802;38.578;-0.066;2023-02-17T07:03:55;10.40;99.90
43183;DHT22;28802;38.578;-0.066;2023-02-17T07:06:23;10.50;99.90
43183;DHT22;28802;38.578;-0.066;2023-02-17T07:08:49;10.60;99.90
43183;DHT22;28802;38.578;-0.066;2023-02-17T07:11:16;10.70;99.90
43183;DHT22;28802;38.578;-0.066;2023-02-17T07:13:43;11.00;99.90
43183;DHT22;28802;38.578;-0.066;2023-02-17T07:16:11;11.30;99.90
43183;DHT22;28802;38.578;-0.066;2023-02-17T07:18:37;11.50;99.90
43183;DHT22;28802;38.578;-0.066;2023-02-17T07:21:05;11.80;99.90
43183;DHT22;28802;38.578;-0.066;2023-02-17T07:23:31;12.10;99.90
43183;DHT22;28802;38.578;-0.066;2023-02-17T07:26:06;12.40;99.90
43183;DHT22;28802;38.578;-0.066;2023-02-17T07:28:34;12.90;99.90
43183;DHT22;28802;38.578;-0.066;2023-02-17T07:31:08;13.30;99.90
43183;DHT22;28802;38.578;-0.066;2023-02-17T07:33:35;13.70;99.90
43183;DHT22;28802;38.578;-0.066;2023-02-17T07:36:09;13.90;99.90
43183;DHT22;28802;38.578;-0.066;2023-02-17T07:38:35;14.20;99.90
43183;DHT22;28802;38.578;-0.066;2023-02-17T07:41:07;14.80;99.90
43183;DHT22;28802;38.578;-0.066;2023-02-17T07:43:34;15.40;99.90
43183;DHT22;28802;38.578;-0.066;2023-02-17T07:46:02;15.60;99.90
43183;DHT22;28802;38.578;-0.066;2023-02-17T07:48:28;16.10;99.90
43183;DHT22;28802;38.578;-0.066;2023-02-17T07:50:53;16.80;99.90
43183;DHT22;28802;38.578;-0.066;2023-02-17T07:53:20;17.30;99.90
43183;DHT22;28802;38.578;-0.066;2023-02-17T07:55:46;17.70;99.90
43183;DHT22;28802;38.578;-0.066;2023-02-17T07:58:12;17.70;99.90
43183;DHT22;28802;38.578;-0.066;2023-02-17T08:00:38;17.80;99.90
43183;DHT22;28802;38.578;-0.066;2023-02-17T08:03:04;18.30;99.90
43183;DHT22;28802;38.578;-0.066;2023-02-17T08:05:30;18.70;99.90
43183;DHT22;28802;38.578;-0.066;2023-02-17T08:07:56;19.00;99.90
43183;DHT22;28802;38.578;-0.066;2023-02-17T08:10:40;19.20;99.90
43183;DHT22;28802;38.578;-0.066;2023-02-17T08:13:26;19.20;99.90
43183;DHT22;28802;38.578;-0.066;2023-02-17T08:15:52;19.20;99.90
43183;DHT22;28802;38.578;-0.066;2023-02-17T08:18:18;18.60;99.90
43183;DHT22;28802;38.578;-0.066;2023-02-17T08:20:44;18.60;99.90
43183;DHT22;28802;38.578;-0.066;2023-02-17T08:23:10;19.40;99.90
43183;DHT22;28802;38.578;-0.066;2023-02-17T08:25:36;20.00;99.90
43183;DHT22;28802;38.578;-0.066;2023-02-17T08:28:04;20.40;99.90
43183;DHT22;28802;38.578;-0.066;2023-02-17T08:30:33;20.70;99.90
43183;DHT22;28802;38.578;-0.066;2023-02-17T08:32:59;21.10;99.90
43183;DHT22;28802;38.578;-0.066;2023-02-17T08:35:25;21.80;99.90
43183;DHT22;28802;38.578;-0.066;2023-02-17T08:37:51;22.10;99.90
43183;DHT22;28802;38.578;-0.066;2023-02-17T08:40:17;21.10;99.90
43183;DHT22;28802;38.578;-0.066;2023-02-17T08:42:44;20.10;99.90
43183;DHT22;28802;38.578;-0.066;2023-02-17T08:45:12;19.40;99.90
43183;DHT22;28802;38.578;-0.066;2023-02-17T08:47:38;19.20;99.90
43183;DHT22;28802;38.578;-0.066;2023-02-17T08:50:05;19.10;99.90
43183;DHT22;28802;38.578;-0.066;2023-02-17T08:52:35;18.30;99.90
43183;DHT22;28802;38.578;-0.066;2023-02-17T08:55:01;18.90;99.90
43183;DHT22;28802;38.578;-0.066;2023-02-17T08:57:27;19.60;99.90
43183;DHT22;28802;38.578;-0.066;2023-02-17T08:59:56;20.60;99.90
43183;DHT22;28802;38.578;-0.066;2023-02-17T09:02:25;21.30;99.90
43183;DHT22;28802;38.578;-0.066;2023-02-17T09:04:51;21.70;99.90
43183;DHT22;28802;38.578;-0.066;2023-02-17T09:07:21;21.70;99.90
43183;DHT22;28802;38.578;-0.066;2023-02-17T09:09:47;21.30;99.90
43183;DHT22;28802;38.578;-0.066;2023-02-17T09:12:13;20.30;99.90
43183;DHT22;28802;38.578;-0.066;2023-02-17T09:14:50;18.90;99.90
43183;DHT22;28802;38.578;-0.066;2023-02-17T09:17:16;18.50;99.90
43183;DHT22;28802;38.578;-0.066;2023-02-17T09:19:42;17.70;99.90
43183;DHT22;28802;38.578;-0.066;2023-02-17T09:22:14;17.20;99.90
43183;DHT22;28802;38.578;-0.066;2023-02-17T09:24:48;17.20;99.90
43183;DHT22;28802;38.578;-0.066;2023-02-17T09:27:14;17.20;99.90
43183;DHT22;28802;38.578;-0.066;2023-02-17T09:29:40;17.10;99.90
43183;DHT22;28802;38.578;-0.066;2023-02-17T09:32:09;16.60;99.90
43183;DHT22;28802;38.578;-0.066;2023-02-17T09:34:38;16.30;99.90
43183;DHT22;28802;38.578;-0.066;2023-02-17T09:37:10;16.20;99.90
43183;DHT22;28802;38.578;-0.066;2023-02-17T09:39:36;16.70;99.90
43183;DHT22;28802;38.578;-0.066;2023-02-17T09:42:23;17.10;99.90
43183;DHT22;28802;38.578;-0.066;2023-02-17T09:45:01;17.00;99.90
43183;DHT22;28802;38.578;-0.066;2023-02-17T09:47:37;17.70;99.90
43183;DHT22;28802;38.578;-0.066;2023-02-17T09:50:08;17.50;99.90
43183;DHT22;28802;38.578;-0.066;2023-02-17T09:55:40;19.10;99.90
43183;DHT22;28802;38.578;-0.066;2023-02-17T09:58:21;20.50;99.90
43183;DHT22;28802;38.578;-0.066;2023-02-17T10:00:59;21.20;99.90
43183;DHT22;28802;38.578;-0.066;2023-02-17T10:03:51;20.70;99.90
43183;DHT22;28802;38.578;-0.066;2023-02-17T10:06:38;20.20;99.90
43183;DHT22;28802;38.578;-0.066;2023-02-17T10:09:21;19.00;99.90
43183;DHT22;28802;38.578;-0.066;2023-02-17T10:12:00;18.30;99.90
43183;DHT22;28802;38.578;-0.066;2023-02-17T10:15:05;17.10;99.90
43183;DHT22;28802;38.578;-0.066;2023-02-17T10:17:56;17.10;99.90
43183;DHT22;28802;38.578;-0.066;2023-02-17T10:20:34;17.20;99.90
43183;DHT22;28802;38.578;-0.066;2023-02-17T10:23:09;17.40;99.90
43183;DHT22;28802;38.578;-0.066;2023-02-17T10:28:21;16.50;99.90
43183;DHT22;28802;38.578;-0.066;2023-02-17T10:31:03;16.70;99.90
43183;DHT22;28802;38.578;-0.066;2023-02-17T10:33:45;16.70;99.90
43183;DHT22;28802;38.578;-0.066;2023-02-17T10:36:28;17.00;99.90
43183;DHT22;28802;38.578;-0.066;2023-02-17T10:41:59;17.10;99.90
43183;DHT22;28802;38.578;-0.066;2023-02-17T10:44:26;16.80;99.90
43183;DHT22;28802;38.578;-0.066;2023-02-17T10:46:53;16.80;99.90
43183;DHT22;28802;38.578;-0.066;2023-02-17T10:49:39;16.60;99.90
43183;DHT22;28802;38.578;-0.066;2023-02-17T10:52:18;16.60;99.90
43183;DHT22;28802;38.578;-0.066;2023-02-17T10:55:07;16.90;99.90
43183;DHT22;28802;38.578;-0.066;2023-02-17T10:57:38;17.30;99.90
43183;DHT22;28802;38.578;-0.066;2023-02-17T11:00:07;17.20;99.90
43183;DHT22;28802;38.578;-0.066;2023-02-17T11:02:42;17.30;99.90
43183;DHT22;28802;38.578;-0.066;2023-02-17T11:05:21;17.10;99.90
43183;DHT22;28802;38.578;-0.066;2023-02-17T11:07:48;17.10;99.90
43183;DHT22;28802;38.578;-0.066;2023-02-17T11:10:31;17.10;99.90
43183;DHT22;28802;38.578;-0.066;2023-02-17T11:12:58;17.20;99.90
43183;DHT22;28802;38.578;-0.066;2023-02-17T11:15:33;17.10;99.90
43183;DHT22;28802;38.578;-0.066;2023-02-17T11:18:08;17.20;99.90
43183;DHT22;28802;38.578;-0.066;2023-02-17T11:20:35;16.60;99.90
43183;DHT22;28802;38.578;-0.066;2023-02-17T11:23:23;16.30;99.90
43183;DHT22;28802;38.578;-0.066;2023-02-17T11:25:58;16.50;99.90
43183;DHT22;28802;38.578;-0.066;2023-02-17T11:28:24;16.60;99.90
43183;DHT22;28802;38.578;-0.066;2023-02-17T11:30:59;16.30;99.90
43183;DHT22;28802;38.578;-0.066;2023-02-17T11:33:38;16.00;99.90
43183;DHT22;28802;38.578;-0.066;2023-02-17T11:36:06;16.20;99.90
43183;DHT22;28802;38.578;-0.066;2023-02-17T11:38:43;16.50;99.90
43183;DHT22;28802;38.578;-0.066;2023-02-17T11:41:10;16.70;99.90
43183;DHT22;28802;38.578;-0.066;2023-02-17T11:43:37;16.50;99.90
43183;DHT22;28802;38.578;-0.066;2023-02-17T11:46:07;16.30;99.90
43183;DHT22;28802;38.578;-0.066;2023-02-17T12:02:41;16.00;99.90
43183;DHT22;28802;38.578;-0.066;2023-02-17T12:08:22;16.20;99.90
43183;DHT22;28802;38.578;-0.066;2023-02-17T12:16:54;15.60;99.90
43183;DHT22;28802;38.578;-0.066;2023-02-17T12:34:00;15.60;99.90
43183;DHT22;28802;38.578;-0.066;2023-02-17T12:36:32;16.00;99.90
43183;DHT22;28802;38.578;-0.066;2023-02-17T12:39:15;15.90;99.90
43183;DHT22;28802;38.578;-0.066;2023-02-17T12:42:33;15.90;99.90
43183;DHT22;28802;38.578;-0.066;2023-02-17T12:44:44;16.40;99.90
43183;DHT22;28802;38.578;-0.066;2023-02-17T12:47:22;16.10;99.90
43183;DHT22;28802;38.578;-0.066;2023-02-17T12:50:15;16.00;99.90
43183;DHT22;28802;38.578;-0.066;2023-02-17T12:52:45;15.90;99.90
43183;DHT22;28802;38.578;-0.066;2023-02-17T12:55:28;16.20;99.90
43183;DHT22;28802;38.578;-0.066;2023-02-17T12:58:07;16.40;99.90
43183;DHT22;28802;38.578;-0.066;2023-02-17T13:00:43;16.40;99.90
43183;DHT22;28802;38.578;-0.066;2023-02-17T13:03:17;15.80;99.90
43183;DHT22;28802;38.578;-0.066;2023-02-17T13:11:44;15.90;99.90
43183;DHT22;28802;38.578;-0.066;2023-02-17T13:14:36;15.80;99.90
43183;DHT22;28802;38.578;-0.066;2023-02-17T13:17:05;15.80;99.90
43183;DHT22;28802;38.578;-0.066;2023-02-17T13:19:33;15.90;99.90
43183;DHT22;28802;38.578;-0.066;2023-02-17T13:21:59;16.00;99.90
43183;DHT22;28802;38.578;-0.066;2023-02-17T13:24:35;16.00;99.90
43183;DHT22;28802;38.578;-0.066;2023-02-17T13:27:20;15.90;99.90
43183;DHT22;28802;38.578;-0.066;2023-02-17T13:30:01;16.20;99.90
43183;DHT22;28802;38.578;-0.066;2023-02-17T13:32:32;16.20;99.90
43183;DHT22;28802;38.578;-0.066;2023-02-17T13:35:16;16.30;99.90
43183;DHT22;28802;38.578;-0.066;2023-02-17T13:37:44;16.00;99.90
43183;DHT22;28802;38.578;-0.066;2023-02-17T13:42:45;15.50;99.90
43183;DHT22;28802;38.578;-0.066;2023-02-17T13:47:57;15.50;99.90
43183;DHT22;28802;38.578;-0.066;2023-02-17T13:50:30;15.60;99.90
43183;DHT22;28802;38.578;-0.066;2023-02-17T13:52:56;15.50;99.90
43183;DHT22;28802;38.578;-0.066;2023-02-17T13:55:23;15.50;99.90
43183;DHT22;28802;38.578;-0.066;2023-02-17T13:57:57;15.40;99.90
43183;DHT22;28802;38.578;-0.066;2023-02-17T14:00:27;15.30;99.90
43183;DHT22;28802;38.578;-0.066;2023-02-17T14:05:36;15.30;99.90
43183;DHT22;28802;38.578;-0.066;2023-02-17T14:08:11;15.30;99.90
43183;DHT22;28802;38.578;-0.066;2023-02-17T14:10:41;15.30;99.90
43183;DHT22;28802;38.578;-0.066;2023-02-17T14:13:11;15.20;99.90
43183;DHT22;28802;38.578;-0.066;2023-02-17T14:15:55;15.20;99.90
43183;DHT22;28802;38.578;-0.066;2023-02-17T14:18:40;15.20;99.90
43183;DHT22;28802;38.578;-0.066;2023-02-17T14:21:24;15.20;99.90
43183;DHT22;28802;38.578;-0.066;2023-02-17T14:23:53;15.10;99.90
43183;DHT22;28802;38.578;-0.066;2023-02-17T14:29:11;15.00;99.90
43183;DHT22;28802;38.578;-0.066;2023-02-17T14:31:45;14.90;99.90
43183;DHT22;28802;38.578;-0.066;2023-02-17T14:34:23;14.90;99.90
43183;DHT22;28802;38.578;-0.066;2023-02-17T14:36:50;14.80;99.90
43183;DHT22;28802;38.578;-0.066;2023-02-17T14:39:16;14.70;99.90
43183;DHT22;28802;38.578;-0.066;2023-02-17T14:41:43;14.60;99.90
43183;DHT22;28802;38.578;-0.066;2023-02-17T14:44:09;14.60;99.90
43183;DHT22;28802;38.578;-0.066;2023-02-17T14:46:35;14.50;99.90
43183;DHT22;28802;38.578;-0.066;2023-02-17T14:49:01;14.50;99.90
43183;DHT22;28802;38.578;-0.066;2023-02-17T14:51:35;14.40;99.90
43183;DHT22;28802;38.578;-0.066;2023-02-17T14:54:03;14.40;99.90
43183;DHT22;28802;38.578;-0.066;2023-02-17T14:56:42;14.40;99.90
43183;DHT22;28802;38.578;-0.066;2023-02-17T14:59:12;14.40;99.90
43183;DHT22;28802;38.578;-0.066;2023-02-17T15:01:38;14.20;99.90
43183;DHT22;28802;38.578;-0.066;2023-02-17T15:04:04;14.00;99.90
43183;DHT22;28802;38.578;-0.066;2023-02-17T15:06:38;14.00;99.90
43183;DHT22;28802;38.578;-0.066;2023-02-17T15:09:12;14.00;99.90
43183;DHT22;28802;38.578;-0.066;2023-02-17T15:11:39;14.00;99.90
43183;DHT22;28802;38.578;-0.066;2023-02-17T15:14:12;14.00;99.90
43183;DHT22;28802;38.578;-0.066;2023-02-17T15:16:39;14.00;99.90
43183;DHT22;28802;38.578;-0.066;2023-02-17T15:19:05;14.00;99.90
43183;DHT22;28802;38.578;-0.066;2023-02-17T15:21:32;14.10;99.90
43183;DHT22;28802;38.578;-0.066;2023-02-17T15:24:00;14.10;99.90
43183;DHT22;28802;38.578;-0.066;2023-02-17T15:26:31;14.10;99.90
43183;DHT22;28802;38.578;-0.066;2023-02-17T15:28:57;14.00;99.90
43183;DHT22;28802;38.578;-0.066;2023-02-17T15:31:25;14.10;99.90
43183;DHT22;28802;38.578;-0.066;2023-02-17T15:33:56;14.20;99.90
43183;DHT22;28802;38.578;-0.066;2023-02-17T15:36:23;14.10;99.90
43183;DHT22;28802;38.578;-0.066;2023-02-17T15:38:49;14.10;99.90
43183;DHT22;28802;38.578;-0.066;2023-02-17T15:41:23;14.10;99.90
43183;DHT22;28802;38.578;-0.066;2023-02-17T15:43:51;14.10;99.90
43183;DHT22;28802;38.578;-0.066;2023-02-17T15:46:19;14.00;99.90
43183;DHT22;28802;38.578;-0.066;2023-02-17T15:48:47;14.10;99.90
43183;DHT22;28802;38.578;-0.066;2023-02-17T15:51:18;14.00;99.90
43183;DHT22;28802;38.578;-0.066;2023-02-17T15:53:46;14.00;99.90
43183;DHT22;28802;38.578;-0.066;2023-02-17T15:56:24;14.10;99.90
43183;DHT22;28802;38.578;-0.066;2023-02-17T15:58:51;14.00;99.90
43183;DHT22;28802;38.578;-0.066;2023-02-17T16:01:38;13.90;99.90
43183;DHT22;28802;38.578;-0.066;2023-02-17T16:04:05;14.00;99.90
43183;DHT22;28802;38.578;-0.066;2023-02-17T16:06:34;13.90;99.90
43183;DHT22;28802;38.578;-0.066;2023-02-17T16:09:00;13.80;99.90
43183;DHT22;28802;38.578;-0.066;2023-02-17T16:11:27;13.80;99.90
43183;DHT22;28802;38.578;-0.066;2023-02-17T16:13:53;13.80;99.90
43183;DHT22;28802;38.578;-0.066;2023-02-17T16:16:25;13.90;99.90
43183;DHT22;28802;38.578;-0.066;2023-02-17T16:19:00;13.90;99.90
43183;DHT22;28802;38.578;-0.066;2023-02-17T16:21:26;13.90;99.90
43183;DHT22;28802;38.578;-0.066;2023-02-17T16:23:53;13.80;99.90
43183;DHT22;28802;38.578;-0.066;2023-02-17T16:26:31;13.80;99.90
43183;DHT22;28802;38.578;-0.066;2023-02-17T16:29:01;13.80;99.90
43183;DHT22;28802;38.578;-0.066;2023-02-17T16:31:30;13.90;99.90
43183;DHT22;28802;38.578;-0.066;2023-02-17T16:33:57;14.00;99.90
43183;DHT22;28802;38.578;-0.066;2023-02-17T16:36:25;14.00;99.90
43183;DHT22;28802;38.578;-0.066;2023-02-17T16:38:54;13.90;99.90
43183;DHT22;28802;38.578;-0.066;2023-02-17T16:41:20;13.90;99.90
43183;DHT22;28802;38.578;-0.066;2023-02-17T16:43:46;13.80;99.90
43183;DHT22;28802;38.578;-0.066;2023-02-17T16:46:23;13.80;99.90
43183;DHT22;28802;38.578;-0.066;2023-02-17T16:48:54;13.80;99.90
43183;DHT22;28802;38.578;-0.066;2023-02-17T16:51:20;13.80;99.90
43183;DHT22;28802;38.578;-0.066;2023-02-17T16:53:46;13.80;99.90
43183;DHT22;28802;38.578;-0.066;2023-02-17T16:56:20;13.80;99.90
43183;DHT22;28802;38.578;-0.066;2023-02-17T16:58:47;13.70;99.90
43183;DHT22;28802;38.578;-0.066;2023-02-17T17:01:24;13.70;99.90
43183;DHT22;28802;38.578;-0.066;2023-02-17T17:03:57;13.70;99.90
43183;DHT22;28802;38.578;-0.066;2023-02-17T17:06:28;13.70;99.90
43183;DHT22;28802;38.578;-0.066;2023-02-17T17:08:54;13.70;99.90
43183;DHT22;28802;38.578;-0.066;2023-02-17T17:11:23;13.70;99.90